sensor_id;sensor_type;location;lat;lon;timestamp;temperature;humidity
35027;DHT22;60696;51.426;6.934;2023-04-25T04:00:45;7.20;99.90
35027;DHT22;60696;51.426;6.934;2023-04-25T04:03:10;7.20;99.90
35027;DHT22;60696;51.426;6.934;2023-04-25T04:05:36;7.30;99.90
35027;DHT22;60696;51.426;6.934;2023-04-25T04:08:02;7.30;99.90
35027;DHT22;60696;51.426;6.934;2023-04-25T04:10:28;7.10;99.90
35027;DHT22;60696;51.426;6.934;2023-04-25T04:12:53;7.10;99.90
35027;DHT22;60696;51.426;6.934;2023-04-25T04:17:48;7.20;99.90
35027;DHT22;60696;51.426;6.934;2023-04-25T04:20:14;7.20;99.90
35027;DHT22;60696;51.426;6.934;2023-04-25T04:22:39;7.10;99.90
35027;DHT22;60696;51.426;6.934;2023-04-25T04:25:05;7.20;99.90
35027;DHT22;60696;51.426;6.934;2023-04-25T04:27:31;7.20;99.90
35027;DHT22;60696;51.426;6.934;2023-04-25T04:29:57;7.20;99.90
35027;DHT22;60696;51.426;6.934;2023-04-25T04:32:23;7.10;99.90
35027;DHT22;60696;51.426;6.934;2023-04-25T04:34:49;7.10;99.90
35027;DHT22;60696;51.426;6.934;2023-04-25T04:37:14;7.00;99.90
35027;DHT22;60696;51.426;6.934;2023-04-25T04:39:40;7.00;99.90
35027;DHT22;60696;51.426;6.934;2023-04-25T04:42:06;7.00;99.90
35027;DHT22;60696;51.426;6.934;2023-04-25T04:44:33;7.00;99.90
35027;DHT22;60696;51.426;6.934;2023-04-25T04:46:59;6.90;99.90
35027;DHT22;60696;51.426;6.934;2023-04-25T04:49:25;6.90;99.90
35027;DHT22;60696;51.426;6.934;2023-04-25T04:51:51;7.00;99.90
35027;DHT22;60696;51.426;6.934;2023-04-25T04:54:17;7.00;99.90
35027;DHT22;60696;51.426;6.934;2023-04-25T04:56:43;6.90;99.90
35027;DHT22;60696;51.426;6.934;2023-04-25T04:59:08;6.90;99.90
35027;DHT22;60696;51.426;6.934;2023-04-25T05:01:34;7.00;99.90
35027;DHT22;60696;51.426;6.934;2023-04-25T05:04:03;6.90;99.90
35027;DHT22;60696;51.426;6.934;2023-04-25T05:06:29;6.90;99.90
35027;DHT22;60696;51.426;6.934;2023-04-25T05:08:55;7.10;99.90
35027;DHT22;60696;51.426;6.934;2023-04-25T05:11:22;7.10;99.90
35027;DHT22;60696;51.426;6.934;2023-04-25T05:13:53;7.10;99.90
35027;DHT22;60696;51.426;6.934;2023-04-25T05:16:19;7.00;99.90
35027;DHT22;60696;51.426;6.934;2023-04-25T05:18:46;7.00;99.90
35027;DHT22;60696;51.426;6.934;2023-04-25T05:21:11;6.90;99.90
35027;DHT22;60696;51.426;6.934;2023-04-25T05:23:37;7.00;99.90
35027;DHT22;60696;51.426;6.934;2023-04-25T05:26:03;7.10;99.90
35027;DHT22;60696;51.426;6.934;2023-04-25T05:28:28;7.20;99.90
35027;DHT22;60696;51.426;6.934;2023-04-25T05:30:54;7.30;99.90
35027;DHT22;60696;51.426;6.934;2023-04-25T05:33:20;7.50;99.90
35027;DHT22;60696;51.426;6.934;2023-04-25T05:35:45;7.70;99.90
35027;DHT22;60696;51.426;6.934;2023-04-25T05:38:11;7.70;99.90
35027;DHT22;60696;51.426;6.934;2023-04-25T05:40:37;7.70;99.90
35027;DHT22;60696;51.426;6.934;2023-04-25T05:43:02;7.80;99.90
35027;DHT22;60696;51.426;6.934;2023-04-25T05:45:28;7.70;99.90
35027;DHT22;60696;51.426;6.934;2023-04-25T05:47:54;7.80;99.90
35027;DHT22;60696;51.426;6.934;2023-04-25T05:50:19;8.00;99.90
35027;DHT22;60696;51.426;6.934;2023-04-25T05:52:45;8.20;99.90
35027;DHT22;60696;51.426;6.934;2023-04-25T05:55:10;8.10;99.90
35027;DHT22;60696;51.426;6.934;2023-04-25T05:57:36;7.80;99.90
35027;DHT22;60696;51.426;6.934;2023-04-25T06:00:02;7.60;99.90
35027;DHT22;60696;51.426;6.934;2023-04-25T06:02:28;7.80;99.90
35027;DHT22;60696;51.426;6.934;2023-04-25T06:04:54;7.90;99.90
35027;DHT22;60696;51.426;6.934;2023-04-25T06:07:19;7.90;99.90
35027;DHT22;60696;51.426;6.934;2023-04-25T06:09:46;8.20;99.90
35027;DHT22;60696;51.426;6.934;2023-04-25T06:12:11;8.30;99.90
35027;DHT22;60696;51.426;6.934;2023-04-25T06:14:37;8.30;99.90
35027;DHT22;60696;51.426;6.934;2023-04-25T06:17:03;8.40;99.90
35027;DHT22;60696;51.426;6.934;2023-04-25T06:19:33;8.50;99.90
35027;DHT22;60696;51.426;6.934;2023-04-25T06:21:59;8.50;99.90
35027;DHT22;60696;51.426;6.934;2023-04-25T06:24:25;8.50;99.90
35027;DHT22;60696;51.426;6.934;2023-04-25T06:26:51;9.10;99.90
35027;DHT22;60696;51.426;6.934;2023-04-25T06:29:16;9.40;99.90
35027;DHT22;60696;51.426;6.934;2023-04-25T06:31:42;10.20;99.90
35027;DHT22;60696;51.426;6.934;2023-04-25T06:34:07;10.70;99.90
35027;DHT22;60696;51.426;6.934;2023-04-25T06:36:33;10.60;99.90
35027;DHT22;60696;51.426;6.934;2023-04-25T06:38:59;11.50;99.90
35027;DHT22;60696;51.426;6.934;2023-04-25T06:41:24;12.70;99.90
35027;DHT22;60696;51.426;6.934;2023-04-25T06:43:50;12.50;99.90
35027;DHT22;60696;51.426;6.934;2023-04-25T06:46:16;12.00;99.90
35027;DHT22;60696;51.426;6.934;2023-04-25T06:48:41;12.20;99.90
35027;DHT22;60696;51.426;6.934;2023-04-25T06:51:07;11.20;99.90
35027;DHT22;60696;51.426;6.934;2023-04-25T06:53:32;11.00;99.90
35027;DHT22;60696;51.426;6.934;2023-04-25T06:55:58;9.90;99.90
35027;DHT22;60696;51.426;6.934;2023-04-25T06:58:24;9.50;99.90
35027;DHT22;60696;51.426;6.934;2023-04-25T07:00:49;9.60;99.90
35027;DHT22;60696;51.426;6.934;2023-04-25T07:03:15;9.50;99.90
35027;DHT22;60696;51.426;6.934;2023-04-25T07:05:41;9.40;99.90
35027;DHT22;60696;51.426;6.934;2023-04-25T07:08:06;9.60;99.90
35027;DHT22;60696;51.426;6.934;2023-04-25T07:10:35;9.50;99.90
35027;DHT22;60696;51.426;6.934;2023-04-25T07:13:00;9.40;99.90
35027;DHT22;60696;51.426;6.934;2023-04-25T07:15:26;9.40;99.90
35027;DHT22;60696;51.426;6.934;2023-04-25T07:17:51;9.10;99.90
35027;DHT22;60696;51.426;6.934;2023-04-25T07:20:17;8.90;99.90
35027;DHT22;60696;51.426;6.934;2023-04-25T07:22:42;8.80;99.90
35027;DHT22;60696;51.426;6.934;2023-04-25T07:25:09;8.80;99.90
35027;DHT22;60696;51.426;6.934;2023-04-25T07:27:35;8.90;99.90
35027;DHT22;60696;51.426;6.934;2023-04-25T07:30:00;9.10;99.90
35027;DHT22;60696;51.426;6.934;2023-04-25T07:32:26;9.60;99.90
35027;DHT22;60696;51.426;6.934;2023-04-25T07:34:52;9.60;99.90
35027;DHT22;60696;51.426;6.934;2023-04-25T07:37:17;9.70;99.90
35027;DHT22;60696;51.426;6.934;2023-04-25T07:39:44;9.80;99.90
35027;DHT22;60696;51.426;6.934;2023-04-25T07:42:11;11.00;99.90
35027;DHT22;60696;51.426;6.934;2023-04-25T07:44:37;12.60;99.40
35027;DHT22;60696;51.426;6.934;2023-04-25T07:47:06;13.20;98.10
35027;DHT22;60696;51.426;6.934;2023-04-25T07:49:35;15.30;86.00
35027;DHT22;60696;51.426;6.934;2023-04-25T07:52:01;14.90;86.20
35027;DHT22;60696;51.426;6.934;2023-04-25T07:54:27;14.30;86.60
35027;DHT22;60696;51.426;6.934;2023-04-25T07:56:53;14.90;86.40
35027;DHT22;60696;51.426;6.934;2023-04-25T07:59:19;13.80;88.00
35027;DHT22;60696;51.426;6.934;2023-04-25T08:01:45;13.40;87.80
35027;DHT22;60696;51.426;6.934;2023-04-25T08:04:10;13.50;89.00
35027;DHT22;60696;51.426;6.934;2023-04-25T08:06:36;14.10;91.40
35027;DHT22;60696;51.426;6.934;2023-04-25T08:09:02;14.30;85.10
35027;DHT22;60696;51.426;6.934;2023-04-25T08:11:28;14.20;86.00
35027;DHT22;60696;51.426;6.934;2023-04-25T08:13:54;14.70;82.40
35027;DHT22;60696;51.426;6.934;2023-04-25T08:16:19;14.20;81.90
35027;DHT22;60696;51.426;6.934;2023-04-25T08:18:45;15.20;80.20
35027;DHT22;60696;51.426;6.934;2023-04-25T08:21:11;16.10;73.80
35027;DHT22;60696;51.426;6.934;2023-04-25T08:23:37;15.20;72.40
35027;DHT22;60696;51.426;6.934;2023-04-25T08:26:03;15.00;69.70
35027;DHT22;60696;51.426;6.934;2023-04-25T08:28:30;14.30;75.20
35027;DHT22;60696;51.426;6.934;2023-04-25T08:30:56;15.40;70.20
35027;DHT22;60696;51.426;6.934;2023-04-25T08:33:21;15.60;69.10
35027;DHT22;60696;51.426;6.934;2023-04-25T08:35:47;14.30;69.60
35027;DHT22;60696;51.426;6.934;2023-04-25T08:38:12;12.80;82.60
35027;DHT22;60696;51.426;6.934;2023-04-25T08:40:39;12.80;86.80
35027;DHT22;60696;51.426;6.934;2023-04-25T08:43:07;12.10;90.20
35027;DHT22;60696;51.426;6.934;2023-04-25T08:45:39;11.80;92.20
35027;DHT22;60696;51.426;6.934;2023-04-25T08:48:10;11.60;93.60
35027;DHT22;60696;51.426;6.934;2023-04-25T08:50:40;11.90;94.50
35027;DHT22;60696;51.426;6.934;2023-04-25T08:53:12;12.20;94.70
35027;DHT22;60696;51.426;6.934;2023-04-25T08:55:44;12.10;94.20
35027;DHT22;60696;51.426;6.934;2023-04-25T08:58:11;12.10;93.20
35027;DHT22;60696;51.426;6.934;2023-04-25T09:00:37;12.30;92.20
35027;DHT22;60696;51.426;6.934;2023-04-25T09:03:03;12.90;91.20
35027;DHT22;60696;51.426;6.934;2023-04-25T09:05:28;13.30;79.50
35027;DHT22;60696;51.426;6.934;2023-04-25T09:07:54;13.50;78.60
35027;DHT22;60696;51.426;6.934;2023-04-25T09:10:22;13.10;81.20
35027;DHT22;60696;51.426;6.934;2023-04-25T09:13:08;13.20;76.40
35027;DHT22;60696;51.426;6.934;2023-04-25T09:15:53;13.60;79.10
35027;DHT22;60696;51.426;6.934;2023-04-25T09:18:30;13.60;76.90
35027;DHT22;60696;51.426;6.934;2023-04-25T09:21:05;13.40;74.60
35027;DHT22;60696;51.426;6.934;2023-04-25T09:23:31;14.00;81.60
35027;DHT22;60696;51.426;6.934;2023-04-25T09:26:07;15.00;74.80
35027;DHT22;60696;51.426;6.934;2023-04-25T09:28:32;15.50;77.00
35027;DHT22;60696;51.426;6.934;2023-04-25T09:31:00;16.50;61.90
35027;DHT22;60696;51.426;6.934;2023-04-25T09:33:30;16.10;62.60
35027;DHT22;60696;51.426;6.934;2023-04-25T09:36:07;15.70;59.40
35027;DHT22;60696;51.426;6.934;2023-04-25T09:38:41;15.30;58.00
35027;DHT22;60696;51.426;6.934;2023-04-25T09:41:08;15.50;60.70
35027;DHT22;60696;51.426;6.934;2023-04-25T09:43:34;16.20;69.40
35027;DHT22;60696;51.426;6.934;2023-04-25T09:46:00;15.90;65.00
35027;DHT22;60696;51.426;6.934;2023-04-25T09:48:27;14.90;58.10
35027;DHT22;60696;51.426;6.934;2023-04-25T09:51:07;14.40;67.70
35027;DHT22;60696;51.426;6.934;2023-04-25T09:53:38;14.30;65.90
35027;DHT22;60696;51.426;6.934;2023-04-25T09:56:05;14.20;64.20
35027;DHT22;60696;51.426;6.934;2023-04-25T09:58:34;14.50;62.20
35027;DHT22;60696;51.426;6.934;2023-04-25T10:01:03;15.10;60.80
35027;DHT22;60696;51.426;6.934;2023-04-25T10:03:33;15.80;65.90
35027;DHT22;60696;51.426;6.934;2023-04-25T10:06:00;15.80;59.70
35027;DHT22;60696;51.426;6.934;2023-04-25T10:08:32;15.10;54.50
35027;DHT22;60696;51.426;6.934;2023-04-25T10:11:02;14.70;54.00
35027;DHT22;60696;51.426;6.934;2023-04-25T10:13:30;15.60;59.80
35027;DHT22;60696;51.426;6.934;2023-04-25T10:16:02;14.90;65.00
35027;DHT22;60696;51.426;6.934;2023-04-25T10:18:28;14.90;75.00
35027;DHT22;60696;51.426;6.934;2023-04-25T10:20:56;15.60;66.80
35027;DHT22;60696;51.426;6.934;2023-04-25T10:23:22;15.50;56.80
35027;DHT22;60696;51.426;6.934;2023-04-25T10:25:50;15.10;55.60
35027;DHT22;60696;51.426;6.934;2023-04-25T10:28:16;15.20;55.30
35027;DHT22;60696;51.426;6.934;2023-04-25T10:31:03;14.80;52.60
35027;DHT22;60696;51.426;6.934;2023-04-25T10:33:32;15.20;65.10
35027;DHT22;60696;51.426;6.934;2023-04-25T10:35:58;15.40;61.00
35027;DHT22;60696;51.426;6.934;2023-04-25T10:38:26;14.80;57.60
35027;DHT22;60696;51.426;6.934;2023-04-25T10:41:18;14.60;59.10
35027;DHT22;60696;51.426;6.934;2023-04-25T10:43:45;13.60;55.00
35027;DHT22;60696;51.426;6.934;2023-04-25T10:46:16;13.20;61.60
35027;DHT22;60696;51.426;6.934;2023-04-25T10:48:48;13.00;63.80
35027;DHT22;60696;51.426;6.934;2023-04-25T10:51:21;13.10;65.10
35027;DHT22;60696;51.426;6.934;2023-04-25T10:56:32;12.60;61.00
35027;DHT22;60696;51.426;6.934;2023-04-25T10:59:19;12.20;64.80
35027;DHT22;60696;51.426;6.934;2023-04-25T11:01:51;12.20;69.10
35027;DHT22;60696;51.426;6.934;2023-04-25T11:04:28;11.60;81.90
35027;DHT22;60696;51.426;6.934;2023-04-25T11:09:41;10.80;94.40
35027;DHT22;60696;51.426;6.934;2023-04-25T11:12:10;10.30;96.90
35027;DHT22;60696;51.426;6.934;2023-04-25T11:14:37;10.00;98.80
35027;DHT22;60696;51.426;6.934;2023-04-25T11:17:02;9.70;99.90
35027;DHT22;60696;51.426;6.934;2023-04-25T11:19:28;9.80;99.90
35027;DHT22;60696;51.426;6.934;2023-04-25T11:22:02;9.60;99.90
35027;DHT22;60696;51.426;6.934;2023-04-25T11:24:32;9.70;99.90
35027;DHT22;60696;51.426;6.934;2023-04-25T11:27:00;9.90;99.90
35027;DHT22;60696;51.426;6.934;2023-04-25T11:29:28;10.20;99.90
35027;DHT22;60696;51.426;6.934;2023-04-25T11:31:55;10.40;99.90
35027;DHT22;60696;51.426;6.934;2023-04-25T11:34:24;10.50;99.40
35027;DHT22;60696;51.426;6.934;2023-04-25T11:36:51;10.80;97.30
35027;DHT22;60696;51.426;6.934;2023-04-25T11:39:18;11.10;96.70
35027;DHT22;60696;51.426;6.934;2023-04-25T11:41:44;11.50;95.80
35027;DHT22;60696;51.426;6.934;2023-04-25T11:44:10;11.80;92.40
35027;DHT22;60696;51.426;6.934;2023-04-25T11:46:35;11.70;90.80
35027;DHT22;60696;51.426;6.934;2023-04-25T11:49:01;11.80;91.00
35027;DHT22;60696;51.426;6.934;2023-04-25T11:51:27;12.00;92.20
35027;DHT22;60696;51.426;6.934;2023-04-25T11:53:53;12.20;96.20
35027;DHT22;60696;51.426;6.934;2023-04-25T11:56:20;12.10;92.30
35027;DHT22;60696;51.426;6.934;2023-04-25T11:59:03;12.30;93.60
35027;DHT22;60696;51.426;6.934;2023-04-25T12:01:33;12.20;90.80
35027;DHT22;60696;51.426;6.934;2023-04-25T12:04:16;11.60;91.60
35027;DHT22;60696;51.426;6.934;2023-04-25T12:06:43;11.30;96.80
35027;DHT22;60696;51.426;6.934;2023-04-25T12:09:11;11.20;96.90
35027;DHT22;60696;51.426;6.934;2023-04-25T12:11:49;11.10;96.80
35027;DHT22;60696;51.426;6.934;2023-04-25T12:14:25;10.70;97.60
35027;DHT22;60696;51.426;6.934;2023-04-25T12:16:54;10.40;99.90
35027;DHT22;60696;51.426;6.934;2023-04-25T12:19:21;10.40;99.90
35027;DHT22;60696;51.426;6.934;2023-04-25T12:21:47;10.50;99.90
35027;DHT22;60696;51.426;6.934;2023-04-25T12:24:18;10.40;99.90
35027;DHT22;60696;51.426;6.934;2023-04-25T12:27:00;10.50;99.90
35027;DHT22;60696;51.426;6.934;2023-04-25T12:29:28;10.60;99.90
35027;DHT22;60696;51.426;6.934;2023-04-25T12:31:54;10.80;98.70
35027;DHT22;60696;51.426;6.934;2023-04-25T12:34:21;11.10;96.80
35027;DHT22;60696;51.426;6.934;2023-04-25T12:36:48;11.20;96.20
35027;DHT22;60696;51.426;6.934;2023-04-25T12:39:15;11.30;97.90
35027;DHT22;60696;51.426;6.934;2023-04-25T12:41:41;11.60;99.70
35027;DHT22;60696;51.426;6.934;2023-04-25T12:44:06;12.10;98.20
35027;DHT22;60696;51.426;6.934;2023-04-25T12:46:32;12.60;99.90
35027;DHT22;60696;51.426;6.934;2023-04-25T12:48:58;12.80;97.60
35027;DHT22;60696;51.426;6.934;2023-04-25T12:51:23;12.90;94.80
35027;DHT22;60696;51.426;6.934;2023-04-25T12:53:51;12.70;97.60
35027;DHT22;60696;51.426;6.934;2023-04-25T12:56:17;12.80;97.10
35027;DHT22;60696;51.426;6.934;2023-04-25T12:58:42;13.10;99.90
35027;DHT22;60696;51.426;6.934;2023-04-25T13:01:09;13.20;96.80
35027;DHT22;60696;51.426;6.934;2023-04-25T13:03:35;12.80;91.00
35027;DHT22;60696;51.426;6.934;2023-04-25T13:06:00;12.80;93.00
35027;DHT22;60696;51.426;6.934;2023-04-25T13:08:26;12.80;91.40
35027;DHT22;60696;51.426;6.934;2023-04-25T13:10:52;12.50;87.90
35027;DHT22;60696;51.426;6.934;2023-04-25T13:13:17;12.10;90.10
35027;DHT22;60696;51.426;6.934;2023-04-25T13:15:43;10.90;99.40
35027;DHT22;60696;51.426;6.934;2023-04-25T13:18:09;10.40;99.90
35027;DHT22;60696;51.426;6.934;2023-04-25T13:20:34;9.80;99.90
35027;DHT22;60696;51.426;6.934;2023-04-25T13:23:00;9.50;99.90
35027;DHT22;60696;51.426;6.934;2023-04-25T13:25:26;9.40;99.90
35027;DHT22;60696;51.426;6.934;2023-04-25T13:27:51;9.40;99.90
35027;DHT22;60696;51.426;6.934;2023-04-25T13:30:17;9.50;99.90
35027;DHT22;60696;51.426;6.934;2023-04-25T13:32:43;9.80;99.90
35027;DHT22;60696;51.426;6.934;2023-04-25T13:35:11;10.00;99.90
35027;DHT22;60696;51.426;6.934;2023-04-25T13:37:38;10.30;99.90
35027;DHT22;60696;51.426;6.934;2023-04-25T13:40:08;10.40;99.90
35027;DHT22;60696;51.426;6.934;2023-04-25T13:42:36;10.70;99.90
35027;DHT22;60696;51.426;6.934;2023-04-25T13:45:02;10.70;99.90
35027;DHT22;60696;51.426;6.934;2023-04-25T13:47:29;10.90;99.90
35027;DHT22;60696;51.426;6.934;2023-04-25T13:49:55;11.00;99.90
35027;DHT22;60696;51.426;6.934;2023-04-25T13:52:21;11.20;99.90
35027;DHT22;60696;51.426;6.934;2023-04-25T13:54:47;11.30;99.90
35027;DHT22;60696;51.426;6.934;2023-04-25T13:57:13;11.00;99.90
35027;DHT22;60696;51.426;6.934;2023-04-25T13:59:39;10.90;99.90
35027;DHT22;60696;51.426;6.934;2023-04-25T14:02:06;11.00;99.90
35027;DHT22;60696;51.426;6.934;2023-04-25T14:04:32;11.20;99.90
35027;DHT22;60696;51.426;6.934;2023-04-25T14:06:58;11.20;98.40
35027;DHT22;60696;51.426;6.934;2023-04-25T14:09:24;11.60;99.90
35027;DHT22;60696;51.426;6.934;2023-04-25T14:11:55;11.90;98.10
35027;DHT22;60696;51.426;6.934;2023-04-25T14:14:23;11.80;93.10
35027;DHT22;60696;51.426;6.934;2023-04-25T14:16:49;11.40;90.20
35027;DHT22;60696;51.426;6.934;2023-04-25T14:19:16;11.30;93.10
35027;DHT22;60696;51.426;6.934;2023-04-25T14:21:42;11.50;92.40
35027;DHT22;60696;51.426;6.934;2023-04-25T14:24:09;11.70;93.00
35027;DHT22;60696;51.426;6.934;2023-04-25T14:26:34;11.90;94.10
35027;DHT22;60696;51.426;6.934;2023-04-25T14:29:04;12.00;88.70
35027;DHT22;60696;51.426;6.934;2023-04-25T14:31:31;11.90;83.40
35027;DHT22;60696;51.426;6.934;2023-04-25T14:33:56;12.00;92.10
35027;DHT22;60696;51.426;6.934;2023-04-25T14:36:22;11.90;84.40
35027;DHT22;60696;51.426;6.934;2023-04-25T14:38:48;12.20;83.60
35027;DHT22;60696;51.426;6.934;2023-04-25T14:41:14;12.10;80.30
35027;DHT22;60696;51.426;6.934;2023-04-25T14:43:40;12.00;84.30
35027;DHT22;60696;51.426;6.934;2023-04-25T14:46:06;12.00;86.90
35027;DHT22;60696;51.426;6.934;2023-04-25T14:48:32;11.90;86.50
35027;DHT22;60696;51.426;6.934;2023-04-25T14:50:59;12.00;87.90
35027;DHT22;60696;51.426;6.934;2023-04-25T14:53:26;11.90;81.50
35027;DHT22;60696;51.426;6.934;2023-04-25T14:55:52;11.90;85.30
35027;DHT22;60696;51.426;6.934;2023-04-25T14:58:17;11.70;82.40
35027;DHT22;60696;51.426;6.934;2023-04-25T15:00:43;11.50;88.40
35027;DHT22;60696;51.426;6.934;2023-04-25T15:03:09;11.40;90.80
35027;DHT22;60696;51.426;6.934;2023-04-25T15:05:38;11.20;90.60
35027;DHT22;60696;51.426;6.934;2023-04-25T15:08:04;11.00;90.90
35027;DHT22;60696;51.426;6.934;2023-04-25T15:10:30;10.80;91.10
35027;DHT22;60696;51.426;6.934;2023-04-25T15:12:55;10.80;90.00
35027;DHT22;60696;51.426;6.934;2023-04-25T15:15:21;10.90;90.60
35027;DHT22;60696;51.426;6.934;2023-04-25T15:17:48;10.90;91.40
35027;DHT22;60696;51.426;6.934;2023-04-25T15:20:13;11.10;90.40
35027;DHT22;60696;51.426;6.934;2023-04-25T15:22:43;11.00;90.40
35027;DHT22;60696;51.426;6.934;2023-04-25T15:25:09;11.10;90.40
35027;DHT22;60696;51.426;6.934;2023-04-25T15:27:37;11.00;86.70
35027;DHT22;60696;51.426;6.934;2023-04-25T15:30:07;10.70;86.40
35027;DHT22;60696;51.426;6.934;2023-04-25T15:32:33;10.90;90.90
35027;DHT22;60696;51.426;6.934;2023-04-25T15:35:01;11.10;87.60
35027;DHT22;60696;51.426;6.934;2023-04-25T15:37:27;11.20;88.10
35027;DHT22;60696;51.426;6.934;2023-04-25T15:40:14;11.10;83.00
35027;DHT22;60696;51.426;6.934;2023-04-25T15:42:44;11.10;84.20
35027;DHT22;60696;51.426;6.934;2023-04-25T15:45:16;11.10;85.60
35027;DHT22;60696;51.426;6.934;2023-04-25T15:47:42;11.20;80.20
35027;DHT22;60696;51.426;6.934;2023-04-25T15:50:09;11.30;81.00
35027;DHT22;60696;51.426;6.934;2023-04-25T15:52:35;11.30;72.50
35027;DHT22;60696;51.426;6.934;2023-04-25T15:55:02;11.20;68.60
35027;DHT22;60696;51.426;6.934;2023-04-25T15:57:29;11.00;66.40
35027;DHT22;60696;51.426;6.934;2023-04-25T15:59:54;10.90;68.60
35027;DHT22;60696;51.426;6.934;2023-04-25T16:02:20;11.00;71.10
35027;DHT22;60696;51.426;6.934;2023-04-25T16:04:46;10.90;75.20
35027;DHT22;60696;51.426;6.934;2023-04-25T16:07:13;10.90;71.00
35027;DHT22;60696;51.426;6.934;2023-04-25T16:09:39;10.90;71.30
35027;DHT22;60696;51.426;6.934;2023-04-25T16:12:07;10.80;71.20
35027;DHT22;60696;51.426;6.934;2023-04-25T16:14:32;10.90;72.60
35027;DHT22;60696;51.426;6.934;2023-04-25T16:16:58;11.10;83.50
35027;DHT22;60696;51.426;6.934;2023-04-25T16:19:24;11.30;81.30
35027;DHT22;60696;51.426;6.934;2023-04-25T16:21:50;11.30;82.10
35027;DHT22;60696;51.426;6.934;2023-04-25T16:24:16;11.00;75.80
35027;DHT22;60696;51.426;6.934;2023-04-25T16:26:42;11.00;77.10
35027;DHT22;60696;51.426;6.934;2023-04-25T16:29:08;10.90;75.30
35027;DHT22;60696;51.426;6.934;2023-04-25T16:31:34;10.90;73.40
35027;DHT22;60696;51.426;6.934;2023-04-25T16:34:03;10.80;69.90
35027;DHT22;60696;51.426;6.934;2023-04-25T16:36:29;10.70;71.60
35027;DHT22;60696;51.426;6.934;2023-04-25T16:38:58;10.60;70.70
35027;DHT22;60696;51.426;6.934;2023-04-25T16:41:25;10.40;71.50
35027;DHT22;60696;51.426;6.934;2023-04-25T16:43:52;10.30;74.80
35027;DHT22;60696;51.426;6.934;2023-04-25T16:46:18;10.40;74.80
35027;DHT22;60696;51.426;6.934;2023-04-25T16:48:44;10.30;77.40
35027;DHT22;60696;51.426;6.934;2023-04-25T16:51:10;10.30;80.40
35027;DHT22;60696;51.426;6.934;2023-04-25T16:53:36;10.40;81.20
35027;DHT22;60696;51.426;6.934;2023-04-25T16:56:02;10.50;85.10
35027;DHT22;60696;51.426;6.934;2023-04-25T16:58:28;10.30;84.90
35027;DHT22;60696;51.426;6.934;2023-04-25T17:00:54;10.20;85.60
35027;DHT22;60696;51.426;6.934;2023-04-25T17:03:20;10.20;90.00
35027;DHT22;60696;51.426;6.934;2023-04-25T17:05:49;10.20;90.10
35027;DHT22;60696;51.426;6.934;2023-04-25T17:08:14;10.10;89.40
35027;DHT22;60696;51.426;6.934;2023-04-25T17:10:40;10.10;90.10
35027;DHT22;60696;51.426;6.934;2023-04-25T17:13:06;10.20;90.50
35027;DHT22;60696;51.426;6.934;2023-04-25T17:15:32;10.10;90.50
35027;DHT22;60696;51.426;6.934;2023-04-25T17:17:57;10.10;91.30
35027;DHT22;60696;51.426;6.934;2023-04-25T17:20:25;10.20;90.50
35027;DHT22;60696;51.426;6.934;2023-04-25T17:22:50;10.20;90.20
35027;DHT22;60696;51.426;6.934;2023-04-25T17:25:16;10.10;90.00
35027;DHT22;60696;51.426;6.934;2023-04-25T17:27:41;10.10;90.70
35027;DHT22;60696;51.426;6.934;2023-04-25T17:30:07;10.10;90.10
35027;DHT22;60696;51.426;6.934;2023-04-25T17:32:33;10.00;89.20
35027;DHT22;60696;51.426;6.934;2023-04-25T17:34:59;9.90;89.40
35027;DHT22;60696;51.426;6.934;2023-04-25T17:37:25;9.90;90.10
35027;DHT22;60696;51.426;6.934;2023-04-25T17:39:53;9.80;91.00
35027;DHT22;60696;51.426;6.934;2023-04-25T17:42:18;9.80;93.30
35027;DHT22;60696;51.426;6.934;2023-04-25T17:44:44;9.70;91.40
35027;DHT22;60696;51.426;6.934;2023-04-25T17:47:09;9.60;91.40
35027;DHT22;60696;51.426;6.934;2023-04-25T17:49:36;9.60;92.20
35027;DHT22;60696;51.426;6.934;2023-04-25T17:52:02;9.70;93.20
35027;DHT22;60696;51.426;6.934;2023-04-25T17:54:27;9.60;92.70
35027;DHT22;60696;51.426;6.934;2023-04-25T17:56:53;9.50;92.20
35027;DHT22;60696;51.426;6.934;2023-04-25T17:59:19;9.40;92.00
35027;DHT22;60696;51.426;6.934;2023-04-25T18:01:45;9.30;92.40
35027;DHT22;60696;51.426;6.934;2023-04-25T18:04:12;9.40;92.70
35027;DHT22;60696;51.426;6.934;2023-04-25T18:06:37;9.40;92.40
35027;DHT22;60696;51.426;6.934;2023-04-25T18:09:03;9.40;92.20
35027;DHT22;60696;51.426;6.934;2023-04-25T18:11:43;9.50;92.80
35027;DHT22;60696;51.426;6.934;2023-04-25T18:14:10;9.40;93.30
35027;DHT22;60696;51.426;6.934;2023-04-25T18:16:43;9.40;93.30
35027;DHT22;60696;51.426;6.934;2023-04-25T18:19:09;9.30;94.20
35027;DHT22;60696;51.426;6.934;2023-04-25T18:21:44;9.30;94.30
35027;DHT22;60696;51.426;6.934;2023-04-25T18:24:11;9.10;94.50
35027;DHT22;60696;51.426;6.934;2023-04-25T18:26:46;9.00;95.40
35027;DHT22;60696;51.426;6.934;2023-04-25T18:29:13;8.90;96.10
35027;DHT22;60696;51.426;6.934;2023-04-25T18:31:39;8.80;97.20
35027;DHT22;60696;51.426;6.934;2023-04-25T18:34:06;8.80;98.40
35027;DHT22;60696;51.426;6.934;2023-04-25T18:36:32;8.70;98.50
35027;DHT22;60696;51.426;6.934;2023-04-25T18:38:58;8.60;98.90
35027;DHT22;60696;51.426;6.934;2023-04-25T18:41:27;8.60;99.10
35027;DHT22;60696;51.426;6.934;2023-04-25T18:43:53;8.60;99.90
35027;DHT22;60696;51.426;6.934;2023-04-25T18:46:25;8.60;99.90
35027;DHT22;60696;51.426;6.934;2023-04-25T18:48:52;8.50;99.90
35027;DHT22;60696;51.426;6.934;2023-04-25T18:51:18;8.40;99.90
35027;DHT22;60696;51.426;6.934;2023-04-25T18:53:44;8.40;99.90
35027;DHT22;60696;51.426;6.934;2023-04-25T18:56:11;8.50;99.90
35027;DHT22;60696;51.426;6.934;2023-04-25T18:58:37;8.40;99.90
35027;DHT22;60696;51.426;6.934;2023-04-25T19:01:03;8.30;99.90
35027;DHT22;60696;51.426;6.934;2023-04-25T19:03:29;8.30;99.90
35027;DHT22;60696;51.426;6.934;2023-04-25T19:05:55;8.20;99.90
35027;DHT22;60696;51.426;6.934;2023-04-25T19:08:21;8.20;99.90
35027;DHT22;60696;51.426;6.934;2023-04-25T19:10:47;8.20;99.90
35027;DHT22;60696;51.426;6.934;2023-04-25T19:13:13;8.30;99.90
35027;DHT22;60696;51.426;6.934;2023-04-25T19:15:39;8.20;99.90
35027;DHT22;60696;51.426;6.934;2023-04-25T19:18:05;8.20;99.90
35027;DHT22;60696;51.426;6.934;2023-04-25T19:20:32;8.20;99.90
35027;DHT22;60696;51.426;6.934;2023-04-25T19:22:58;8.00;99.90
35027;DHT22;60696;51.426;6.934;2023-04-25T19:25:23;8.00;99.90
35027;DHT22;60696;51.426;6.934;2023-04-25T19:27:50;7.90;99.90
35027;DHT22;60696;51.426;6.934;2023-04-25T19:30:16;7.90;99.90
35027;DHT22;60696;51.426;6.934;2023-04-25T19:32:41;7.80;99.90
35027;DHT22;60696;51.426;6.934;2023-04-25T19:35:08;7.80;99.90
35027;DHT22;60696;51.426;6.934;2023-04-25T19:37:34;7.80;99.90
35027;DHT22;60696;51.426;6.934;2023-04-25T19:40:00;7.80;99.90
35027;DHT22;60696;51.426;6.934;2023-04-25T19:42:26;7.70;99.90
35027;DHT22;60696;51.426;6.934;2023-04-25T19:44:51;7.70;99.90